This is the latest recevied weather packets stored in our database for station/object WX4SGA. If no packets are shown the sender has not sent any weather packets the latest 10 day(s).
| Time | Temp. | Humidity | Pressure | Rain* | Wind** | Luminosity | Snow |
|---|---|---|---|---|---|---|---|
| 1788628689 | 30° C | 74% | 1014.6 hPa | 0 mm | - | 527 W/m² | - |
| 1788628385 | 31.11° C | 74% | 1014.6 hPa | 0 mm | - | 185 W/m² | - |
| 1788628082 | 31.67° C | 70% | 1014.6 hPa | 0 mm | - | 917 W/m² | - |
| 1788627802 | 30.56° C | 76% | 1014.6 hPa | 0 mm | - | 903 W/m² | - |
| 1788627475 | 31.11° C | 74% | 1014.6 hPa | 0 mm | - | 143 W/m² | - |
| 1788627171 | 30.56° C | 73% | 1014.6 hPa | 0 mm | - | 853 W/m² | - |
| 1788626866 | 29.44° C | 77% | 1014.9 hPa | 0 mm | - | 99 W/m² | - |
| 1788626566 | 30° C | 77% | 1014.9 hPa | 0 mm | - | 85 W/m² | - |
| 1788626262 | 31.11° C | 73% | 1014.9 hPa | 0 mm | - | 903 W/m² | - |
| 1788625973 | 30° C | 74% | 1015.2 hPa | 0 mm | - | 866 W/m² | - |
| 1788625654 | 29.44° C | 77% | 1015.2 hPa | 0 mm | - | 131 W/m² | - |
| 1788625354 | 30° C | 76% | 1015.2 hPa | 0 mm | - | 138 W/m² | - |
| 1788625048 | 30° C | 77% | 1015.2 hPa | 0 mm | - | 250 W/m² | - |
| 1788624747 | 30° C | 76% | 1015.2 hPa | 0 mm | - | 855 W/m² | - |
| 1788624445 | 30° C | 76% | 1015.6 hPa | 0 mm | - | 157 W/m² | - |
| 1788624139 | 30.56° C | 74% | 1015.6 hPa | 0 mm | - | 174 W/m² | - |
| 1788623834 | 30.56° C | 74% | 1015.6 hPa | 0 mm | - | 862 W/m² | - |
| 1788623533 | 29.44° C | 78% | 1015.6 hPa | 0 mm | - | 798 W/m² | - |
| 1788623227 | 30° C | 76% | 1015.2 hPa | 0 mm | - | 128 W/m² | - |
| 1788622923 | 30.56° C | 75% | 1015.6 hPa | 0 mm | - | 708 W/m² | - |
| 1788622619 | 30° C | 77% | 1015.6 hPa | 0 mm | - | 795 W/m² | - |
| 1788622314 | 30° C | 78% | 1015.6 hPa | 0 mm | - | 169 W/m² | - |
| 1788622008 | 30.56° C | 77% | 1015.6 hPa | 0 mm | - | 268 W/m² | - |
| 1788621703 | 30° C | 77% | 1015.6 hPa | 0 mm | - | 656 W/m² | - |
| 1788621398 | 29.44° C | 79% | 1015.6 hPa | 0 mm | - | 218 W/m² | - |
* Rain latest hour (hover to see other rain measurements)
** Current wind speed in m/s (hover to see current wind gust speed)